createdAt,value
2022-09-04T00:03:41.734Z,97934.38
2022-09-04T00:08:01.187Z,97929.09
2022-09-04T00:12:08.638Z,97936.94
2022-09-04T00:16:16.987Z,97937.31
2022-09-04T00:20:46.093Z,97948.25
2022-09-04T00:24:57.561Z,97941.28
2022-09-04T00:29:06.019Z,97945.94
2022-09-04T00:33:20.601Z,97951.75
2022-09-04T00:37:28.084Z,97960.53
2022-09-04T00:41:58.228Z,97965.72
2022-09-04T00:46:06.458Z,97971.00
2022-09-04T00:50:40.932Z,97970.97
2022-09-04T00:55:35.314Z,97971.47
2022-09-04T01:00:02.356Z,97975.03
2022-09-04T01:04:35.267Z,97978.03
2022-09-04T01:09:03.413Z,97989.06
2022-09-04T01:13:30.827Z,97984.84
2022-09-04T01:17:51.431Z,97985.94
2022-09-04T01:22:21.607Z,97985.44
2022-09-04T01:26:37.620Z,97982.41
2022-09-04T01:30:50.933Z,97980.19
2022-09-04T01:35:06.918Z,97990.06
2022-09-04T01:39:09.219Z,97993.88
2022-09-04T01:43:21.152Z,97982.78
2022-09-04T01:47:40.162Z,97980.28
2022-09-04T01:52:08.084Z,97994.97
2022-09-04T01:56:18.997Z,97989.91
2022-09-04T02:00:24.917Z,97982.78
2022-09-04T02:04:48.782Z,97988.19
2022-09-04T02:09:10.811Z,97998.03
2022-09-04T02:13:44.835Z,97996.13
2022-09-04T02:18:14.316Z,97996.97
2022-09-04T02:22:39.893Z,98012.97
2022-09-04T02:26:46.215Z,98004.75
2022-09-04T02:31:00.144Z,98007.63
2022-09-04T02:35:15.325Z,98012.34
2022-09-04T02:39:30.998Z,98008.69
2022-09-04T02:43:39.655Z,98017.34
2022-09-04T02:48:04.413Z,98020.44
2022-09-04T02:52:33.429Z,98018.06
2022-09-04T02:57:12.254Z,98024.72
2022-09-04T03:01:23.969Z,98015.81
2022-09-04T03:05:31.476Z,98023.13
2022-09-04T03:09:42.210Z,98021.00
2022-09-04T03:13:58.927Z,98026.03
2022-09-04T03:18:16.272Z,98021.41
2022-09-04T03:22:41.030Z,98029.16
2022-09-04T03:27:07.994Z,98031.34
2022-09-04T03:31:28.838Z,98033.97
2022-09-04T03:35:58.751Z,98035.88
2022-09-04T03:40:18.989Z,98031.81
2022-09-04T03:44:34.802Z,98033.34
2022-09-04T03:48:55.672Z,98033.75
2022-09-04T03:53:42.793Z,98037.50
2022-09-04T03:58:19.035Z,98044.88
2022-09-04T04:02:37.157Z,98038.69
2022-09-04T04:07:07.739Z,98038.69
2022-09-04T04:11:23.154Z,98051.28
2022-09-04T04:16:08.359Z,98052.63
2022-09-04T04:20:38.175Z,98047.69
2022-09-04T04:24:58.527Z,98051.91
2022-09-04T04:29:30.235Z,98059.22
2022-09-04T04:33:42.028Z,98064.81
2022-09-04T04:38:03.078Z,98067.97
2022-09-04T04:42:28.989Z,98070.91
2022-09-04T04:46:51.106Z,98067.59
2022-09-04T04:51:40.571Z,98078.94
2022-09-04T04:56:15.377Z,98095.88
2022-09-04T05:00:27.487Z,98094.47
2022-09-04T05:04:41.728Z,98106.94
2022-09-04T05:08:56.506Z,98110.88
2022-09-04T05:13:10.477Z,98106.19
2022-09-04T05:17:37.476Z,98115.34
2022-09-04T05:22:10.391Z,98127.22
2022-09-04T05:26:37.129Z,98126.19
2022-09-04T05:30:51.882Z,98133.75
2022-09-04T05:35:04.250Z,98142.75
2022-09-04T05:39:41.919Z,98150.94
2022-09-04T05:43:57.821Z,98153.28
2022-09-04T05:48:09.489Z,98154.66
2022-09-04T05:52:29.954Z,98159.31
2022-09-04T05:56:51.690Z,98170.06
2022-09-04T06:01:23.612Z,98162.19
2022-09-04T06:05:47.252Z,98169.19
2022-09-04T06:10:08.605Z,98174.75
2022-09-04T06:14:48.158Z,98166.56
2022-09-04T06:19:08.223Z,98176.53
2022-09-04T06:23:17.724Z,98174.72
2022-09-04T06:27:39.334Z,98191.09
2022-09-04T06:32:04.370Z,98203.13
2022-09-04T06:36:35.941Z,98194.25
2022-09-04T06:40:55.169Z,98197.25
2022-09-04T06:45:09.810Z,98199.50
2022-09-04T06:49:24.122Z,98199.91
2022-09-04T06:53:38.813Z,98213.59
2022-09-04T06:58:13.827Z,98211.38
2022-09-04T07:02:24.298Z,98217.22
2022-09-04T07:06:58.822Z,98218.09
2022-09-04T07:11:38.637Z,98219.41
2022-09-04T07:16:00.717Z,98220.19
2022-09-04T07:20:10.433Z,98217.53
2022-09-04T07:24:27.808Z,98221.72
2022-09-04T07:29:05.424Z,98224.97
2022-09-04T07:33:19.274Z,98235.47
2022-09-04T07:37:31.190Z,98244.97
2022-09-04T07:41:52.920Z,98243.00
2022-09-04T07:46:05.278Z,98253.31
2022-09-04T07:50:35.656Z,98256.81
2022-09-04T07:54:58.549Z,98270.63
2022-09-04T07:59:38.889Z,98266.06
2022-09-04T08:03:58.081Z,98267.75
2022-09-04T08:08:04.631Z,98273.47
2022-09-04T08:12:30.422Z,98274.16
2022-09-04T08:16:53.275Z,98289.25
2022-09-04T08:21:15.928Z,98294.44
2022-09-04T08:25:29.952Z,98309.72
2022-09-04T08:29:38.092Z,98301.63
2022-09-04T08:34:03.228Z,98308.47
2022-09-04T08:38:34.857Z,98309.69
2022-09-04T08:43:07.364Z,98301.44
2022-09-04T08:47:41.203Z,98304.84
2022-09-04T08:52:07.813Z,98313.78
2022-09-04T08:56:45.079Z,98316.34
2022-09-04T09:01:25.272Z,98312.47
2022-09-04T09:05:46.134Z,98307.25
2022-09-04T09:10:25.961Z,98321.53
2022-09-04T09:14:53.087Z,98315.13
2022-09-04T09:19:37.488Z,98309.25
2022-09-04T09:24:01.538Z,98318.31
2022-09-04T09:28:23.341Z,98318.50
2022-09-04T09:33:03.083Z,98313.38
2022-09-04T09:37:18.341Z,98316.97
2022-09-04T09:41:41.913Z,98306.66
2022-09-04T09:46:34.743Z,98309.59
2022-09-04T09:50:54.753Z,98302.25
2022-09-04T09:55:09.381Z,98304.81
2022-09-04T09:59:48.889Z,98296.88
2022-09-04T10:04:15.388Z,98294.69
2022-09-04T10:08:36.860Z,98302.66
2022-09-04T10:12:50.854Z,98299.34
2022-09-04T10:17:18.078Z,98299.97
2022-09-04T10:21:35.294Z,98297.44
2022-09-04T10:25:58.414Z,98295.09
2022-09-04T10:30:03.441Z,98293.91
2022-09-04T10:34:44.869Z,98289.69
2022-09-04T10:39:25.838Z,98279.66
2022-09-04T10:43:37.433Z,98281.22
2022-09-04T10:47:58.769Z,98287.16
2022-09-04T10:52:43.783Z,98285.44
2022-09-04T10:56:48.788Z,98286.53
2022-09-04T11:01:18.935Z,98285.56
2022-09-04T11:05:25.649Z,98287.91
2022-09-04T11:10:09.056Z,98289.13
2022-09-04T11:14:31.378Z,98282.63
2022-09-04T11:18:57.373Z,98284.25
2022-09-04T11:23:24.075Z,98279.44
2022-09-04T11:27:58.570Z,98281.66
2022-09-04T11:32:31.916Z,98290.75
2022-09-04T11:37:06.635Z,98291.50
2022-09-04T11:41:31.345Z,98292.59
2022-09-04T11:46:03.829Z,98292.22
2022-09-04T11:50:12.002Z,98290.78
2022-09-04T11:54:38.961Z,98295.34
2022-09-04T11:58:50.068Z,98288.41
2022-09-04T12:02:55.165Z,98290.97
2022-09-04T12:07:39.332Z,98299.56
2022-09-04T12:12:10.092Z,98291.81
2022-09-04T12:16:27.071Z,98296.56
2022-09-04T12:20:47.915Z,98307.03
2022-09-04T12:25:08.762Z,98306.28
2022-09-04T12:29:55.342Z,98302.38
2022-09-04T12:34:38.474Z,98306.28
2022-09-04T12:39:16.070Z,98304.75
2022-09-04T12:43:29.805Z,98308.84
2022-09-04T12:47:37.322Z,98318.03
2022-09-04T12:51:51.474Z,98327.13
2022-09-04T12:56:17.011Z,98313.94
2022-09-04T13:00:19.064Z,98322.97
2022-09-04T13:04:27.549Z,98323.59
2022-09-04T13:08:54.115Z,98324.47
2022-09-04T13:12:59.116Z,98319.53
2022-09-04T13:17:12.870Z,98325.06
2022-09-04T13:21:25.249Z,98329.28
2022-09-04T13:25:44.946Z,98322.84
2022-09-04T13:30:07.966Z,98327.91
2022-09-04T13:34:26.755Z,98325.63
2022-09-04T13:38:39.957Z,98322.78
2022-09-04T13:43:07.040Z,98323.94
2022-09-04T13:47:20.957Z,98321.53
2022-09-04T13:51:32.900Z,98315.78
2022-09-04T13:55:41.135Z,98312.91
2022-09-04T13:59:48.968Z,98310.34
2022-09-04T14:04:01.575Z,98317.41
2022-09-04T14:08:08.711Z,98319.72
2022-09-04T14:12:32.130Z,98320.09
2022-09-04T14:16:36.930Z,98321.22
2022-09-04T14:20:43.492Z,98319.59
2022-09-04T14:25:06.706Z,98324.50
2022-09-04T14:29:21.165Z,98324.53
2022-09-04T14:38:15.178Z,98320.03
2022-09-04T14:42:31.010Z,98319.91
2022-09-04T14:46:48.549Z,98329.69
2022-09-04T14:50:57.588Z,98329.41
2022-09-04T14:55:01.744Z,98325.47
2022-09-04T14:59:12.995Z,98320.56
2022-09-04T15:03:20.630Z,98311.66
2022-09-04T15:07:32.735Z,98313.34
2022-09-04T15:11:36.094Z,98308.00
2022-09-04T15:15:47.763Z,98309.25
2022-09-04T15:20:05.795Z,98308.88
2022-09-04T15:24:17.688Z,98313.78
2022-09-04T15:28:48.390Z,98316.72
2022-09-04T15:33:11.721Z,98313.22
2022-09-04T15:37:18.822Z,98311.94
2022-09-04T15:41:37.602Z,98315.59
2022-09-04T15:45:51.927Z,98312.50
2022-09-04T15:49:58.557Z,98309.53
2022-09-04T15:54:10.031Z,98311.94
2022-09-04T15:58:30.158Z,98308.56
2022-09-04T16:02:43.613Z,98305.19
2022-09-04T16:06:57.607Z,98303.78
2022-09-04T16:11:38.307Z,98301.81
2022-09-04T16:15:46.181Z,98303.78
2022-09-04T16:19:53.426Z,98306.16
2022-09-04T16:23:59.688Z,98300.38
2022-09-04T16:28:19.068Z,98300.97
2022-09-04T16:32:29.991Z,98297.84
2022-09-04T16:36:40.719Z,98296.41
2022-09-04T16:40:54.277Z,98291.22
2022-09-04T16:45:22.163Z,98287.41
2022-09-04T16:49:51.623Z,98297.69
2022-09-04T16:54:05.170Z,98295.31
2022-09-04T16:58:29.946Z,98294.88
2022-09-04T17:02:50.694Z,98295.88
2022-09-04T17:07:12.006Z,98294.88
2022-09-04T17:11:30.183Z,98288.53
2022-09-04T17:15:45.878Z,98290.25
2022-09-04T17:20:02.194Z,98288.53
2022-09-04T17:29:08.798Z,98287.69
2022-09-04T17:40:35.593Z,98293.50
2022-09-04T17:40:36.995Z,98293.03
2022-09-04T17:43:36.381Z,98293.56
2022-09-04T17:47:43.688Z,98298.28
2022-09-04T17:52:24.193Z,98294.97
2022-09-04T17:56:40.938Z,98305.28
2022-09-04T18:01:15.286Z,98309.69
2022-09-04T18:05:23.250Z,98307.25
2022-09-04T18:09:35.967Z,98312.91
2022-09-04T18:14:03.140Z,98319.31
2022-09-04T18:18:17.073Z,98325.06
2022-09-04T18:22:31.900Z,98331.50
2022-09-04T18:26:59.690Z,98337.66
2022-09-04T18:37:10.472Z,98352.22
2022-09-04T18:37:20.410Z,98354.28
2022-09-04T18:44:00.844Z,98357.41
2022-09-04T18:50:45.117Z,98354.66
2022-09-04T18:50:53.076Z,98360.31
2022-09-04T18:54:41.809Z,98367.66
2022-09-04T18:58:43.768Z,98365.94
2022-09-04T19:02:53.744Z,98367.47
2022-09-04T19:07:32.646Z,98367.53
2022-09-04T19:11:41.162Z,98370.56
2022-09-04T19:15:52.453Z,98371.88
2022-09-04T19:20:03.609Z,98374.81
2022-09-04T19:24:34.469Z,98381.53
2022-09-04T19:28:52.675Z,98392.00
2022-09-04T19:33:17.688Z,98386.91
2022-09-04T19:39:04.818Z,98382.13
2022-09-04T19:46:01.173Z,98384.56
2022-09-04T19:46:51.042Z,98385.59
2022-09-04T19:53:31.421Z,98390.28
2022-09-04T19:55:45.669Z,98389.19
2022-09-04T20:00:42.129Z,98391.06
2022-09-04T20:04:38.615Z,98397.22
2022-09-04T20:08:53.292Z,98400.75
2022-09-04T20:13:10.742Z,98404.91
2022-09-04T20:18:01.537Z,98400.56
2022-09-04T20:22:24.747Z,98406.22
2022-09-04T20:26:32.031Z,98398.81
2022-09-04T20:30:36.811Z,98393.78
2022-09-04T20:35:13.010Z,98392.38
2022-09-04T20:39:24.451Z,98399.16
2022-09-04T20:43:56.122Z,98403.03
2022-09-04T20:52:50.064Z,98398.41
2022-09-04T20:53:07.180Z,98407.13
2022-09-04T21:02:02.524Z,98401.22
2022-09-04T21:03:08.254Z,98392.38
2022-09-04T21:06:57.098Z,98408.72
2022-09-04T21:11:38.926Z,98418.66
2022-09-04T21:15:47.048Z,98414.38
2022-09-04T21:20:23.690Z,98414.72
2022-09-04T21:25:00.091Z,98412.94
2022-09-04T21:29:28.133Z,98417.59
2022-09-04T21:33:41.215Z,98414.34
2022-09-04T21:38:15.232Z,98416.94
2022-09-04T21:42:51.410Z,98422.81
2022-09-04T21:47:11.677Z,98433.38
2022-09-04T21:51:55.399Z,98441.25
2022-09-04T22:01:19.540Z,98440.66
2022-09-04T22:02:41.129Z,98443.81
2022-09-04T22:06:03.689Z,98441.41
2022-09-04T22:13:32.672Z,98445.34
2022-09-04T22:14:59.024Z,98453.50
2022-09-04T22:19:17.068Z,98451.81
2022-09-04T22:23:49.841Z,98449.25
2022-09-04T22:28:21.184Z,98447.72
2022-09-04T22:32:29.256Z,98445.59
2022-09-04T22:36:59.031Z,98450.44
2022-09-04T22:41:17.587Z,98446.50
2022-09-04T22:45:50.836Z,98448.56
2022-09-04T22:50:17.813Z,98449.59
2022-09-04T22:54:41.670Z,98450.44
2022-09-04T22:59:25.589Z,98453.28
2022-09-04T23:04:00.306Z,98443.88
2022-09-04T23:13:41.992Z,98454.00
2022-09-04T23:13:47.523Z,98455.00
2022-09-04T23:17:58.212Z,98458.28
2022-09-04T23:26:53.816Z,98451.34
2022-09-04T23:27:29.464Z,98469.03
2022-09-04T23:32:10.047Z,98470.06
2022-09-04T23:36:35.439Z,98475.81
2022-09-04T23:40:42.655Z,98475.63
2022-09-04T23:45:02.927Z,98481.53
2022-09-04T23:49:17.640Z,98474.47
2022-09-04T23:53:41.495Z,98477.81
2022-09-04T23:57:52.545Z,98472.84
